CW6020 Teulada ES current weather conditions

sailwx.info

Air temperature 24.4° C
Dewpoint 21.9° C

Last reported at 2017-Jul-27 00:07 UTC.
Time now 2017-Jul-27 00:30 UTC

Location: N 38°44' E 000°06'.
View on Google Maps.

See reports from other nearby stations

  
Tides and Currents Weather Stations Pressure Air Temp Water Temp Dewpoint Dewpoint Depression Visibility Wind Speed Wind Dir Waves Ship Positions
date/time (UTC)wind fromknots sea level pressurealtimeterstation pressurevisibilityair tempwater tempwave heightnotes
2017-Jul-27 00:07 24.4
2017-Jul-26 23:56 24.4
2017-Jul-26 23:46 24.4
2017-Jul-26 23:36 24.4
2017-Jul-26 23:26 25.0
2017-Jul-26 23:16 25.0
2017-Jul-26 23:06 225 25.0
2017-Jul-26 22:56 270 25.0
2017-Jul-26 22:46 225 0 gusting 2 25.0
2017-Jul-26 22:36 135 0 gusting 2 25.0
2017-Jul-26 22:26 225 1 gusting 3 25.0
2017-Jul-26 22:16 225 1 gusting 3 25.0
2017-Jul-26 22:06 225 2 gusting 3 25.0
2017-Jul-26 21:56 315 1 gusting 2 25.0
2017-Jul-26 21:46 135 2 gusting 5 25.0
2017-Jul-26 21:36 270 1 gusting 2 25.0
2017-Jul-26 21:26 180 1 gusting 3 25.0
2017-Jul-26 21:16 090 3 gusting 5 25.6
2017-Jul-26 21:06 225 2 gusting 6 25.6
2017-Jul-26 20:56 135 2 gusting 5 25.6
2017-Jul-26 20:46 225 3 gusting 5 25.6
2017-Jul-26 20:26 180 4 gusting 8 25.6
2017-Jul-26 20:16 315 2 gusting 6 25.6
2017-Jul-26 20:06 180 4 gusting 6 25.6
2017-Jul-26 19:56 090 4 gusting 6 25.6
2017-Jul-26 19:46 090 2 gusting 5 26.1
2017-Jul-26 19:36 180 5 gusting 7 26.1
2017-Jul-26 19:26 225 2 gusting 3 26.1
2017-Jul-26 19:16 045 2 gusting 5 26.7
2017-Jul-26 19:06 180 3 gusting 7 26.7
2017-Jul-26 18:56 180 3 gusting 5 27.2
2017-Jul-26 18:46 180 4 gusting 6 27.8
2017-Jul-26 18:36 315 3 gusting 6 28.3
2017-Jul-26 18:23 180 5 gusting 7 28.9
2017-Jul-26 18:11 180 2 gusting 5 28.9
2017-Jul-26 18:01 270 2 gusting 5 28.9
2017-Jul-26 17:51 180 2 gusting 3 29.4
2017-Jul-26 17:41 180 3 gusting 5 29.4
2017-Jul-26 17:31 270 2 gusting 6 29.4
2017-Jul-26 17:21 135 4 gusting 6 29.4
2017-Jul-26 17:11 180 4 gusting 6 29.4
2017-Jul-26 17:01 180 5 gusting 8 28.9
2017-Jul-26 16:51 135 4 gusting 6 29.4
2017-Jul-26 16:41 202 4 gusting 6 29.4
2017-Jul-26 16:31 180 5 gusting 7 29.4
2017-Jul-26 16:21 180 5 gusting 7 29.4
2017-Jul-26 16:11 180 6 gusting 8 30.0
2017-Jul-26 16:01 180 3 gusting 6 30.0
2017-Jul-26 15:51 180 6 gusting 9 30.0
2017-Jul-26 15:41 180 5 gusting 7 30.0
2017-Jul-26 15:31 090 4 gusting 6 30.0
2017-Jul-26 15:21 180 4 gusting 6 30.0
2017-Jul-26 15:11 135 5 gusting 7 30.0
2017-Jul-26 15:01 247 5 gusting 7 30.6
2017-Jul-26 14:51 180 3 gusting 6 30.0
2017-Jul-26 14:41 225 4 gusting 7 30.0
2017-Jul-26 14:31 180 5 gusting 10 30.0
2017-Jul-26 14:21 135 5 gusting 7 30.6
2017-Jul-26 14:11 180 6 gusting 9 30.6
2017-Jul-26 14:01 180 4 gusting 5 30.6
2017-Jul-26 13:51 180 5 gusting 7 30.6
2017-Jul-26 13:41 135 2 gusting 6 30.6
2017-Jul-26 13:31 180 4 gusting 6 30.0
2017-Jul-26 13:21 135 4 gusting 6 30.0
2017-Jul-26 13:01 180 4 gusting 6 30.6
2017-Jul-26 12:51 270 3 gusting 6 30.6
2017-Jul-26 12:41 180 5 gusting 7 30.6
2017-Jul-26 12:31 180 5 gusting 9 30.6
2017-Jul-26 12:21 225 2 gusting 5 30.6
2017-Jul-26 12:11 180 4 gusting 6 30.6
2017-Jul-26 12:01 180 2 gusting 5 30.6
2017-Jul-26 11:51 045 4 gusting 5 30.6
2017-Jul-26 11:41 180 2 gusting 5 30.6
2017-Jul-26 11:31 135 4 gusting 6 30.6
2017-Jul-26 11:21 225 2 gusting 4 30.6
2017-Jul-26 11:11 135 2 gusting 4 30.6
2017-Jul-26 11:01 225 0 gusting 2 30.6
2017-Jul-26 10:51 180 5 gusting 7 30.6
2017-Jul-26 10:41 090 3 gusting 6 30.6
2017-Jul-26 10:31 045 1 gusting 5 30.6
2017-Jul-26 10:21 090 0 gusting 1 30.0
2017-Jul-26 10:11 180 3 gusting 7 30.0
2017-Jul-26 10:01 315 30.0
2017-Jul-26 09:51 090 0 gusting 2 29.4
2017-Jul-26 09:41 270 0 gusting 2 28.9
2017-Jul-26 09:31 270 1 gusting 4 28.3
2017-Jul-26 09:21 180 0 gusting 2 27.8
2017-Jul-26 09:11 090 27.2
2017-Jul-26 09:01 180 0 gusting 1 26.7
2017-Jul-26 08:51 135 1 gusting 2 26.7
2017-Jul-26 08:41 135 0 gusting 2 26.7
2017-Jul-26 08:31 135 26.7
2017-Jul-26 08:21 270 0 gusting 1 26.7
2017-Jul-26 08:11 045 26.7
2017-Jul-26 08:01 045 0 gusting 2 26.1
2017-Jul-26 07:51 180 25.6
2017-Jul-26 07:41 315 25.0
2017-Jul-26 07:31 090 0 gusting 2 24.4
2017-Jul-26 07:21 315 23.9
2017-Jul-26 07:11 315 0 gusting 2 23.9
2017-Jul-26 07:01 315 23.3
2017-Jul-26 06:51 315 0 gusting 2 22.8
2017-Jul-26 06:41 315 22.2
2017-Jul-26 06:31 045 0 gusting 2 22.2
2017-Jul-26 06:21 21.7
2017-Jul-26 06:11 21.7
2017-Jul-26 06:01 21.1
2017-Jul-26 05:51 21.1
2017-Jul-26 05:41 21.1
2017-Jul-26 05:31 21.1
2017-Jul-26 05:21 21.1
2017-Jul-26 05:11 21.1
2017-Jul-26 05:01 21.1
2017-Jul-26 04:51 21.1
2017-Jul-26 04:41 21.1
2017-Jul-26 04:31 21.1
2017-Jul-26 04:21 21.1
2017-Jul-26 04:11 21.1
2017-Jul-26 04:01 21.1
2017-Jul-26 03:51 21.7
2017-Jul-26 03:41 21.7
2017-Jul-26 03:31 21.7
2017-Jul-26 03:21 21.7
2017-Jul-26 03:11 21.7
2017-Jul-26 03:01 21.7
2017-Jul-26 02:51 21.7
2017-Jul-26 02:41 21.7
2017-Jul-26 02:31 21.7
2017-Jul-26 02:21 22.2
2017-Jul-26 02:11 22.2
2017-Jul-26 02:01 22.2
2017-Jul-26 01:51 22.2
2017-Jul-26 01:41 22.2
2017-Jul-26 01:31 22.2
2017-Jul-26 01:21 22.8
2017-Jul-26 01:11 22.8
2017-Jul-26 01:01 22.8
2017-Jul-26 00:51 22.8
2017-Jul-26 00:41 22.8
2017-Jul-26 00:31 23.3
2017-Jul-26 00:21 23.3
2017-Jul-26 00:11 23.3
2017-Jul-26 00:01 23.9
2017-Jul-25 23:51 23.9
2017-Jul-25 23:41 23.9
2017-Jul-25 23:31 23.9
2017-Jul-25 23:21 23.9
2017-Jul-25 23:11 23.9
2017-Jul-25 23:01 23.9
2017-Jul-25 22:51 23.9
2017-Jul-25 22:41 23.9
2017-Jul-25 22:31 24.4
2017-Jul-25 22:21 24.4
2017-Jul-25 22:11 24.4
2017-Jul-25 22:01 24.4
2017-Jul-25 21:51 24.4
2017-Jul-25 21:41 25.0
2017-Jul-25 21:31 25.0
2017-Jul-25 21:21 25.0
2017-Jul-25 21:11 25.0
2017-Jul-25 21:01 25.0
2017-Jul-25 20:51 25.6
2017-Jul-25 20:41 25.6
2017-Jul-25 20:31 25.6
2017-Jul-25 20:21 25.6
2017-Jul-25 20:11 25.6
2017-Jul-25 20:01 26.1
2017-Jul-25 19:51 26.1
2017-Jul-25 19:41 26.7
2017-Jul-25 19:31 26.7
2017-Jul-25 19:21 27.2
2017-Jul-25 19:11 112 27.2
2017-Jul-25 19:01 27.8
2017-Jul-25 18:51 180 28.3
2017-Jul-25 18:41 180 28.9
2017-Jul-25 18:31 315 0 gusting 2 29.4
2017-Jul-25 18:18 225 30.0
2017-Jul-25 18:06 30.0
2017-Jul-25 17:56 180 1 gusting 3 30.0
2017-Jul-25 17:46 225 30.0
2017-Jul-25 17:36 135 1 gusting 2 30.0
2017-Jul-25 17:26 30.0
2017-Jul-25 17:16 090 0 gusting 1 30.0
2017-Jul-25 17:06 180 4 gusting 6 30.0
2017-Jul-25 16:56 180 2 gusting 5 30.0
2017-Jul-25 16:46 135 2 gusting 4 30.0
2017-Jul-25 16:36 315 2 gusting 4 30.0
2017-Jul-25 16:26 045 4 gusting 6 30.0
2017-Jul-25 16:16 270 3 gusting 5 30.0
2017-Jul-25 16:06 135 2 gusting 5 30.0
2017-Jul-25 15:56 135 3 gusting 6 30.0
2017-Jul-25 15:46 135 3 gusting 5 30.0
2017-Jul-25 15:36 180 2 gusting 3 30.0
2017-Jul-25 15:26 135 4 gusting 5 30.6
2017-Jul-25 15:16 270 4 gusting 6 30.6
2017-Jul-25 15:06 135 5 gusting 6 30.6
2017-Jul-25 14:56 180 4 gusting 6 30.6
2017-Jul-25 14:46 180 2 gusting 4 30.6
2017-Jul-25 14:36 180 1 gusting 2 30.6
2017-Jul-25 14:26 225 2 gusting 5 30.6
2017-Jul-25 14:16 135 2 gusting 5 30.6
2017-Jul-25 14:06 090 2 gusting 5 30.6
2017-Jul-25 13:56 180 3 gusting 5 30.6
2017-Jul-25 13:46 30.0
2017-Jul-25 13:36 135 2 gusting 3 30.0
2017-Jul-25 13:26 090 1 gusting 2 30.0
2017-Jul-25 13:06 180 3 gusting 6 30.0
2017-Jul-25 12:56 045 2 gusting 5 30.0
2017-Jul-25 12:46 270 0 gusting 2 30.0
2017-Jul-25 12:36 270 2 gusting 7 30.0
2017-Jul-25 12:26 225 1 gusting 2 30.0
2017-Jul-25 12:16 180 1 gusting 2 30.0
2017-Jul-25 12:06 090 1 gusting 3 30.0
2017-Jul-25 11:56 090 1 gusting 2 29.4
2017-Jul-25 11:46 270 0 gusting 2 29.4
2017-Jul-25 11:36 225 0 gusting 2 29.4
2017-Jul-25 11:26 180 2 gusting 4 29.4
2017-Jul-25 11:16 090 1 gusting 4 29.4
2017-Jul-25 11:06 225 2 gusting 5 29.4
2017-Jul-25 10:56 28.9
2017-Jul-25 10:46 090 0 gusting 3 28.9
2017-Jul-25 10:36 292 1 gusting 2 28.9
2017-Jul-25 10:26 045 0 gusting 1 28.9
2017-Jul-25 10:16 270 28.9
2017-Jul-25 10:06 090 1 gusting 2 28.3
2017-Jul-25 09:56 045 1 gusting 2 28.3
2017-Jul-25 09:46 315 1 gusting 5 28.3
2017-Jul-25 09:36 28.3
2017-Jul-25 09:26 090 0 gusting 2 27.8
2017-Jul-25 09:16 045 2 gusting 5 27.8
2017-Jul-25 09:06 090 0 gusting 2 27.8
2017-Jul-25 08:56 045 1 gusting 3 27.8
2017-Jul-25 08:46 135 2 gusting 4 27.2
2017-Jul-25 08:36 315 1 gusting 3 27.2
2017-Jul-25 08:26 26.7
2017-Jul-25 08:16 26.7
2017-Jul-25 08:06 135 1 gusting 4 26.1
2017-Jul-25 07:56 090 3 gusting 6 26.1
2017-Jul-25 07:46 25.6
2017-Jul-25 07:36 315 2 gusting 5 25.6
2017-Jul-25 07:26 270 1 gusting 4 25.0
2017-Jul-25 07:16 292 2 gusting 5 25.0
2017-Jul-25 07:06 270 24.4
2017-Jul-25 06:56 180 2 gusting 7 24.4
2017-Jul-25 06:46 315 23.9
2017-Jul-25 06:36 315 0 gusting 2 23.9
2017-Jul-25 06:26 090 1 gusting 3 23.9
2017-Jul-25 06:16 045 1 gusting 2 23.9
2017-Jul-25 06:06 315 0 gusting 1 23.3
2017-Jul-25 05:56 315 23.3
2017-Jul-25 05:46 045 0 gusting 1 23.3
2017-Jul-25 05:36 315 23.3
2017-Jul-25 05:26 225 23.3
2017-Jul-25 05:16 022 0 gusting 2 23.3
2017-Jul-25 05:06 270 23.3
2017-Jul-25 04:56 180 23.3
2017-Jul-25 04:46 180 0 gusting 2 23.3
2017-Jul-25 04:36 23.3
2017-Jul-25 04:26 225 0 gusting 2 23.9
2017-Jul-25 04:16 225 1 gusting 2 23.9
2017-Jul-25 04:06 180 23.9
2017-Jul-25 03:56 135 1 gusting 3 23.9
2017-Jul-25 03:46 270 1 gusting 2 23.9
2017-Jul-25 03:36 045 0 gusting 2 24.4
2017-Jul-25 03:26 270 24.4
2017-Jul-25 03:16 225 23.9
2017-Jul-25 03:06 045 1 gusting 5 23.9
2017-Jul-25 02:56 270 23.9
2017-Jul-25 02:46 292 23.9
2017-Jul-25 02:36 24.4
2017-Jul-25 02:26 24.4
2017-Jul-25 02:16 315 2 gusting 4 23.9
2017-Jul-25 02:06 23.9
2017-Jul-25 01:56 23.3
2017-Jul-25 01:46 22.8
2017-Jul-25 01:36 22.2
2017-Jul-25 01:26 22.2
2017-Jul-25 01:16 22.2
2017-Jul-25 01:06 22.2
2017-Jul-25 00:56 22.8
2017-Jul-25 00:46 22.8
2017-Jul-25 00:36 22.8
2017-Jul-25 00:26 22.8
2017-Jul-25 00:16 22.8
2017-Jul-25 00:06 22.8